Time;durP1;ratioP1;P1;durP2;ratioP2;P2;SDS_P1;SDS_P2;PMS_P1;PMS_P2;Temp;Humidity;BMP_temperature;BMP_pressure;BME280_temperature;BME280_humidity;BME280_pressure;Samples;Min_cycle;Max_cycle;Signal;HPM_P1;HPM_P2
2023/09/25 00:01:58;;;;;;;7.38;2.40;;;37.60;26.30;;;;;;5074175;28;20020;-62
2023/09/25 00:04:25;;;;;;;6.38;2.42;;;37.60;26.60;;;;;;5083825;28;20036;-62
2023/09/25 00:06:52;;;;;;;6.07;2.75;;;37.40;26.80;;;;;;5073243;28;20488;-60
2023/09/25 00:09:18;;;;;;;6.40;3.00;;;37.40;26.60;;;;;;5067083;28;21220;-63
2023/09/25 00:11:45;;;;;;;21.77;3.70;;;37.30;27.20;;;;;;5081162;28;20051;-58
2023/09/25 00:14:12;;;;;;;8.07;2.72;;;37.20;27.40;;;;;;5072596;28;20039;-60
2023/09/25 00:16:38;;;;;;;4.75;2.50;;;37.00;27.00;;;;;;5072275;28;20055;-61
2023/09/25 00:19:05;;;;;;;8.38;2.80;;;36.90;26.90;;;;;;5082604;28;20016;-59
2023/09/25 00:21:31;;;;;;;5.35;2.70;;;36.90;26.90;;;;;;5072506;28;20027;-60
2023/09/25 00:23:58;;;;;;;13.15;3.35;;;36.80;27.10;;;;;;5068989;28;20051;-63
2023/09/25 00:26:24;;;;;;;7.30;2.60;;;36.70;27.30;;;;;;5070847;28;20444;-61
2023/09/25 00:28:51;;;;;;;22.45;15.82;;;36.60;27.70;;;;;;5068558;28;20077;-64
2023/09/25 00:31:17;;;;;;;28.27;18.17;;;36.60;28.70;;;;;;5074458;28;20095;-64
2023/09/25 00:33:44;;;;;;;30.83;17.25;;;36.40;28.80;;;;;;5064809;28;20021;-62
2023/09/25 00:36:10;;;;;;;25.75;16.45;;;36.40;27.70;;;;;;5072430;28;20112;-64
2023/09/25 00:38:36;;;;;;;10.50;2.80;;;36.30;27.60;;;;;;5073719;28;20106;-64
2023/09/25 00:41:03;;;;;;;12.07;3.13;;;36.20;27.90;;;;;;5068774;28;20068;-63
2023/09/25 00:43:29;;;;;;;12.55;3.00;;;36.10;27.20;;;;;;5069992;28;20024;-63
2023/09/25 00:45:56;;;;;;;10.98;3.30;;;36.00;28.30;;;;;;5084246;28;20016;-63
2023/09/25 00:48:28;;;;;;;8.85;3.10;;;35.90;28.20;;;;;;5074503;28;20425;-63
2023/09/25 00:51:03;;;;;;;9.23;3.15;;;35.90;29.10;;;;;;5051731;28;20366;-65
2023/09/25 00:53:30;;;;;;;13.48;3.35;;;35.70;28.50;;;;;;5069267;28;20473;-63
2023/09/25 00:55:57;;;;;;;8.15;3.25;;;35.70;29.00;;;;;;5068676;28;20017;-65
2023/09/25 00:58:25;;;;;;;10.43;3.28;;;35.60;28.10;;;;;;5067370;28;20021;-64
2023/09/25 01:00:52;;;;;;;10.55;3.28;;;35.60;29.20;;;;;;5074484;28;20507;-65
2023/09/25 01:03:19;;;;;;;6.80;3.03;;;35.50;29.80;;;;;;5075285;28;20435;-67
2023/09/25 01:05:46;;;;;;;5.07;2.72;;;35.40;29.40;;;;;;5070663;28;20024;-66
2023/09/25 01:08:12;;;;;;;12.05;3.00;;;35.30;29.90;;;;;;5082321;28;20040;-65
2023/09/25 01:10:40;;;;;;;8.27;3.03;;;35.20;30.00;;;;;;5063676;28;20020;-66
2023/09/25 01:13:09;;;;;;;7.65;3.17;;;35.10;29.50;;;;;;5066697;28;20044;-65
2023/09/25 01:15:38;;;;;;;14.88;3.40;;;35.00;29.60;;;;;;5075309;28;20012;-65
2023/09/25 01:18:05;;;;;;;13.48;3.40;;;34.90;29.80;;;;;;5066342;28;20028;-65
2023/09/25 01:20:31;;;;;;;6.55;3.00;;;34.70;30.40;;;;;;5068791;28;20116;-64
2023/09/25 01:22:58;;;;;;;15.25;3.58;;;34.60;29.90;;;;;;5071740;28;20021;-65
2023/09/25 01:25:25;;;;;;;15.60;3.65;;;34.50;29.70;;;;;;5072096;28;20058;-66
2023/09/25 01:27:51;;;;;;;27.33;15.52;;;34.40;28.10;;;;;;5071710;28;20016;-65
2023/09/25 01:30:19;;;;;;;23.70;16.02;;;34.30;27.80;;;;;;5070269;28;20023;-62
2023/09/25 01:32:46;;;;;;;26.85;16.00;;;34.20;27.40;;;;;;5076295;28;20542;-63
2023/09/25 01:35:16;;;;;;;27.48;16.13;;;34.10;27.60;;;;;;5074790;28;20495;-63
2023/09/25 01:37:43;;;;;;;31.40;16.10;;;34.10;27.80;;;;;;5070867;28;20157;-63
2023/09/25 01:40:14;;;;;;;23.80;16.13;;;33.90;28.00;;;;;;5061096;28;20418;-63
2023/09/25 01:42:41;;;;;;;31.35;16.10;;;33.80;27.60;;;;;;5069578;28;20100;-65
2023/09/25 01:45:09;;;;;;;24.27;3.42;;;33.70;27.60;;;;;;5074872;28;20016;-61
2023/09/25 01:47:36;;;;;;;19.80;4.18;;;33.60;27.40;;;;;;5071919;28;20021;-61
2023/09/25 01:50:03;;;;;;;18.65;3.67;;;33.50;27.40;;;;;;5071352;28;20406;-60
2023/09/25 01:52:30;;;;;;;20.45;3.70;;;33.50;27.90;;;;;;5071831;28;20021;-61
2023/09/25 01:54:57;;;;;;;17.83;3.85;;;33.40;28.30;;;;;;5071156;28;20099;-63
2023/09/25 01:57:23;;;;;;;10.60;4.18;;;33.30;28.10;;;;;;5074389;28;20556;-61
2023/09/25 01:59:50;;;;;;;15.88;4.65;;;33.20;27.40;;;;;;5055049;28;20028;-59
2023/09/25 02:02:16;;;;;;;16.10;4.20;;;33.10;27.10;;;;;;5068139;28;20439;-62
2023/09/25 02:04:42;;;;;;;18.10;4.63;;;33.00;27.40;;;;;;5066903;28;20126;-62
2023/09/25 02:07:09;;;;;;;17.08;5.72;;;33.00;27.20;;;;;;5075346;28;20077;-61
2023/09/25 02:09:35;;;;;;;24.85;5.68;;;32.90;27.30;;;;;;5067321;28;20044;-63
2023/09/25 02:12:02;;;;;;;18.17;4.82;;;32.80;27.30;;;;;;5083248;28;20486;-62
2023/09/25 02:14:29;;;;;;;15.90;5.30;;;32.70;27.60;;;;;;5070966;28;20373;-61
2023/09/25 02:16:55;;;;;;;18.13;5.55;;;32.60;27.60;;;;;;5070247;28;20472;-62
2023/09/25 02:19:25;;;;;;;16.48;5.55;;;32.50;27.90;;;;;;5083685;28;20012;-60
2023/09/25 02:21:53;;;;;;;24.30;6.30;;;32.40;28.00;;;;;;5070377;28;20040;-62
2023/09/25 02:24:19;;;;;;;18.02;6.13;;;32.30;28.40;;;;;;5075735;28;20023;-63
2023/09/25 02:26:46;;;;;;;19.02;6.00;;;32.20;28.40;;;;;;5080170;28;20062;-61
2023/09/25 02:29:13;;;;;;;16.60;5.47;;;32.20;28.70;;;;;;5072433;28;20039;-62
2023/09/25 02:31:39;;;;;;;16.88;5.65;;;32.10;28.60;;;;;;5072697;28;20031;-62
2023/09/25 02:34:08;;;;;;;18.38;5.07;;;32.00;28.60;;;;;;5069881;28;20017;-62
2023/09/25 02:36:35;;;;;;;22.60;5.10;;;32.00;28.60;;;;;;5068605;28;20025;-58
2023/09/25 02:39:03;;;;;;;18.90;5.22;;;31.90;29.00;;;;;;5066091;28;20016;-61
2023/09/25 02:41:29;;;;;;;24.20;5.95;;;31.80;29.10;;;;;;5068610;28;20048;-63
2023/09/25 02:43:55;;;;;;;20.02;5.85;;;31.80;28.40;;;;;;5068788;28;20035;-62
2023/09/25 02:46:22;;;;;;;26.20;6.18;;;31.70;29.30;;;;;;5075248;28;20024;-64
2023/09/25 02:48:49;;;;;;;26.13;5.75;;;31.70;29.30;;;;;;5070638;28;20616;-60
2023/09/25 02:51:15;;;;;;;25.42;5.85;;;31.60;29.50;;;;;;5073313;28;20121;-60
2023/09/25 02:53:42;;;;;;;23.30;5.60;;;31.60;29.90;;;;;;5068086;28;20021;-63
2023/09/25 02:56:08;;;;;;;18.25;6.97;;;31.50;30.60;;;;;;5076879;28;20040;-63
2023/09/25 02:58:34;;;;;;;26.52;7.43;;;31.40;31.00;;;;;;5074325;28;20031;-63
2023/09/25 03:01:01;;;;;;;21.15;7.00;;;31.30;31.30;;;;;;5054288;28;20027;-62
2023/09/25 03:03:29;;;;;;;32.90;8.20;;;31.30;30.80;;;;;;5074663;28;20009;-63
2023/09/25 03:05:56;;;;;;;35.10;8.52;;;31.30;31.60;;;;;;5074841;28;20036;-62
2023/09/25 03:08:22;;;;;;;40.95;8.90;;;31.20;31.00;;;;;;5075406;28;20047;-61
2023/09/25 03:10:48;;;;;;;36.28;8.88;;;31.10;30.70;;;;;;5069926;28;20013;-61
2023/09/25 03:13:15;;;;;;;29.08;8.55;;;31.00;31.00;;;;;;5073212;28;20028;-62
2023/09/25 03:15:41;;;;;;;31.55;8.68;;;31.00;32.60;;;;;;5067378;28;20111;-62
2023/09/25 03:18:09;;;;;;;33.60;8.85;;;30.90;31.10;;;;;;5073196;28;20035;-62
2023/09/25 03:20:38;;;;;;;37.25;9.40;;;30.80;31.50;;;;;;5073112;28;20010;-63
2023/09/25 03:23:05;;;;;;;28.35;8.93;;;30.80;31.50;;;;;;5040354;28;20511;-61
2023/09/25 03:25:35;;;;;;;30.63;8.98;;;30.80;31.30;;;;;;5071327;28;20036;-62
2023/09/25 03:28:02;;;;;;;40.47;9.82;;;30.70;32.10;;;;;;5071487;28;20464;-63
2023/09/25 03:30:30;;;;;;;40.42;9.82;;;30.70;31.50;;;;;;5068153;28;20029;-63
2023/09/25 03:32:56;;;;;;;30.02;9.50;;;30.60;32.70;;;;;;5073750;28;20414;-63
2023/09/25 03:35:23;;;;;;;38.88;9.68;;;30.50;31.90;;;;;;5061794;28;20874;-62
2023/09/25 03:37:49;;;;;;;37.30;10.23;;;30.50;32.70;;;;;;5076110;28;20038;-62
2023/09/25 03:40:16;;;;;;;36.90;10.07;;;30.40;33.00;;;;;;5073486;28;20013;-64
2023/09/25 03:42:42;;;;;;;42.90;10.32;;;30.40;34.80;;;;;;5067843;28;20075;-61
2023/09/25 03:45:09;;;;;;;39.95;10.80;;;30.20;33.20;;;;;;5076470;28;20037;-61
2023/09/25 03:47:36;;;;;;;36.50;10.77;;;30.10;32.80;;;;;;5075603;28;20023;-63
2023/09/25 03:50:03;;;;;;;49.63;10.68;;;30.10;33.50;;;;;;5071198;28;20091;-63
2023/09/25 03:52:31;;;;;;;45.72;11.32;;;30.10;35.20;;;;;;5073493;28;20107;-63
2023/09/25 03:54:57;;;;;;;47.33;11.90;;;30.00;33.10;;;;;;5067098;28;20031;-63
2023/09/25 03:57:24;;;;;;;45.50;11.80;;;29.90;34.70;;;;;;5069324;28;20064;-62
2023/09/25 03:59:51;;;;;;;52.13;10.77;;;29.90;32.90;;;;;;5072191;28;20012;-62
2023/09/25 04:02:17;;;;;;;34.97;11.25;;;29.90;32.60;;;;;;5078825;28;20015;-62
2023/09/25 04:04:44;;;;;;;35.83;10.93;;;29.90;33.80;;;;;;5077554;28;20054;-62
2023/09/25 04:07:10;;;;;;;35.35;10.77;;;29.80;34.30;;;;;;5075562;28;20445;-65
2023/09/25 04:09:37;;;;;;;43.88;11.05;;;29.70;34.50;;;;;;5069532;28;20469;-62
2023/09/25 04:12:03;;;;;;;37.67;11.07;;;29.60;34.00;;;;;;5065409;28;20119;-65
2023/09/25 04:14:34;;;;;;;37.58;11.18;;;29.60;33.30;;;;;;5066525;28;20019;-63
2023/09/25 04:17:01;;;;;;;42.15;11.48;;;29.60;33.70;;;;;;5064890;28;20412;-63
2023/09/25 04:19:28;;;;;;;34.13;11.35;;;29.50;33.80;;;;;;5068309;28;20096;-65
2023/09/25 04:21:54;;;;;;;35.13;11.20;;;29.50;33.40;;;;;;5070615;28;20136;-63
2023/09/25 04:24:21;;;;;;;41.78;12.48;;;29.50;33.90;;;;;;5076170;28;20020;-65
2023/09/25 04:26:48;;;;;;;42.53;12.43;;;29.40;34.30;;;;;;5078605;28;20384;-63
2023/09/25 04:29:17;;;;;;;44.67;12.73;;;29.40;34.10;;;;;;5054238;28;20047;-61
2023/09/25 04:31:47;;;;;;;49.78;12.57;;;29.40;34.30;;;;;;5074129;28;20562;-61
2023/09/25 04:34:13;;;;;;;56.40;12.98;;;29.30;33.80;;;;;;5075509;28;20012;-61
2023/09/25 04:36:40;;;;;;;46.63;13.70;;;29.30;34.10;;;;;;5075699;28;20035;-61
2023/09/25 04:39:10;;;;;;;58.38;13.63;;;29.30;34.70;;;;;;5071489;28;20013;-61
2023/09/25 04:41:37;;;;;;;50.28;12.90;;;29.30;34.00;;;;;;5076115;28;20094;-60
2023/09/25 04:44:04;;;;;;;46.70;12.55;;;29.20;33.90;;;;;;5079106;28;20012;-60
2023/09/25 04:46:31;;;;;;;45.80;13.32;;;29.20;34.20;;;;;;5066424;28;20103;-61
2023/09/25 04:49:00;;;;;;;52.35;14.15;;;29.20;35.20;;;;;;5065918;28;20377;-63
2023/09/25 04:51:26;;;;;;;67.10;15.95;;;29.20;35.60;;;;;;5077401;28;20013;-63
2023/09/25 04:53:53;;;;;;;56.42;14.50;;;29.10;35.90;;;;;;5068664;28;20469;-62
2023/09/25 04:56:23;;;;;;;55.53;14.57;;;29.10;35.50;;;;;;5071540;28;20032;-62
2023/09/25 04:58:50;;;;;;;51.28;15.77;;;29.10;35.60;;;;;;5070527;28;20495;-64
2023/09/25 05:01:16;;;;;;;56.28;15.20;;;29.10;35.50;;;;;;5070038;28;20013;-63
2023/09/25 05:03:43;;;;;;;53.30;14.80;;;29.00;34.60;;;;;;5083381;28;20020;-62
2023/09/25 05:06:11;;;;;;;46.72;14.15;;;29.00;35.50;;;;;;5070686;28;20017;-60
2023/09/25 05:08:38;;;;;;;59.40;16.67;;;29.00;36.30;;;;;;5074581;28;20381;-62
2023/09/25 05:11:08;;;;;;;54.67;16.45;;;28.90;35.60;;;;;;5076703;28;20024;-64
2023/09/25 05:13:34;;;;;;;60.45;16.20;;;28.90;35.70;;;;;;5069696;28;20020;-61
2023/09/25 05:16:02;;;;;;;48.35;17.35;;;28.90;35.70;;;;;;5075181;28;20020;-63
2023/09/25 05:18:32;;;;;;;58.60;18.17;;;28.90;36.50;;;;;;5055459;28;20039;-62
2023/09/25 05:20:58;;;;;;;66.00;19.17;;;28.90;36.60;;;;;;5073497;28;20016;-61
2023/09/25 05:23:25;;;;;;;72.35;20.05;;;28.80;37.50;;;;;;5070241;28;20089;-61
2023/09/25 05:25:52;;;;;;;57.58;21.25;;;28.80;37.80;;;;;;5073282;28;20021;-62
2023/09/25 05:28:18;;;;;;;76.60;22.98;;;28.70;38.30;;;;;;5069059;28;20028;-61
2023/09/25 05:30:45;;;;;;;74.00;24.48;;;28.70;39.00;;;;;;5073168;28;20012;-64
2023/09/25 05:33:11;;;;;;;72.70;23.95;;;28.60;38.20;;;;;;5076310;28;20210;-61
2023/09/25 05:35:38;;;;;;;92.45;22.95;;;28.60;38.20;;;;;;5071442;28;20061;-62
2023/09/25 05:38:05;;;;;;;69.85;21.33;;;28.60;38.30;;;;;;5067719;28;20024;-61
2023/09/25 05:40:34;;;;;;;58.00;20.65;;;28.50;38.10;;;;;;5069250;28;20402;-62
2023/09/25 05:43:01;;;;;;;56.95;20.40;;;28.50;37.70;;;;;;5079954;28;20012;-66
2023/09/25 05:45:27;;;;;;;72.70;21.23;;;28.50;38.10;;;;;;5070562;28;20012;-65
2023/09/25 05:47:54;;;;;;;73.53;20.33;;;28.40;37.80;;;;;;5054012;28;20032;-66
2023/09/25 05:50:21;;;;;;;56.30;19.80;;;28.40;37.50;;;;;;5072909;28;20029;-64
2023/09/25 05:52:47;;;;;;;68.88;19.10;;;28.40;38.90;;;;;;5072435;28;20040;-62
2023/09/25 05:55:14;;;;;;;73.57;18.58;;;28.40;38.80;;;;;;5077104;28;20020;-65
2023/09/25 05:57:41;;;;;;;72.80;18.38;;;28.40;38.50;;;;;;5076472;28;20047;-59
2023/09/25 06:00:12;;;;;;;78.18;18.42;;;28.80;39.00;;;;;;5078074;28;20056;-58
2023/09/25 06:02:42;;;;;;;92.30;19.20;;;29.60;39.90;;;;;;5071660;28;20016;-63
2023/09/25 06:05:14;;;;;;;65.85;18.00;;;29.80;39.50;;;;;;5072913;28;20025;-65
2023/09/25 06:07:42;;;;;;;72.78;18.67;;;29.90;38.50;;;;;;5082067;28;20055;-57
2023/09/25 06:10:09;;;;;;;89.78;18.48;;;30.10;40.00;;;;;;5070295;28;20012;-56
2023/09/25 06:12:39;;;;;;;86.90;18.73;;;30.10;39.40;;;;;;5071232;28;20020;-58
2023/09/25 06:15:09;;;;;;;52.28;15.93;;;30.20;39.70;;;;;;5070869;28;20017;-62
2023/09/25 06:17:39;;;;;;;71.25;15.93;;;30.20;39.60;;;;;;5072885;28;20032;-60
2023/09/25 06:20:14;;;;;;;48.78;14.25;;;30.30;39.40;;;;;;5074172;28;20092;-62
2023/09/25 06:22:40;;;;;;;42.88;11.40;;;30.30;39.20;;;;;;5067359;28;20023;-58
2023/09/25 06:25:11;;;;;;;47.92;12.43;;;30.20;38.70;;;;;;5069421;28;20508;-57
2023/09/25 06:27:39;;;;;;;50.72;12.00;;;30.50;37.40;;;;;;5069658;28;20025;-58
2023/09/25 06:30:09;;;;;;;44.50;10.57;;;30.60;38.20;;;;;;5071844;28;20013;-61
2023/09/25 06:32:35;;;;;;;48.03;10.35;;;30.90;37.00;;;;;;5054319;28;20031;-57
2023/09/25 06:35:02;;;;;;;31.52;9.80;;;30.70;36.50;;;;;;5070225;28;20040;-60
2023/09/25 06:37:30;;;;;;;36.63;9.00;;;30.60;36.60;;;;;;5068229;28;21481;-56
2023/09/25 06:39:56;;;;;;;33.55;8.52;;;30.50;38.10;;;;;;5070006;28;20017;-59
2023/09/25 06:42:23;;;;;;;39.55;10.13;;;30.30;37.70;;;;;;5075009;28;20009;-60
2023/09/25 06:44:49;;;;;;;41.70;9.38;;;30.20;37.60;;;;;;5072161;28;20036;-61
2023/09/25 06:47:16;;;;;;;29.42;7.80;;;30.20;37.60;;;;;;5072342;28;20047;-57
2023/09/25 06:49:42;;;;;;;39.13;8.77;;;30.20;38.60;;;;;;5069130;28;20020;-61
2023/09/25 06:52:09;;;;;;;37.00;8.27;;;30.00;39.00;;;;;;5066932;28;20024;-59
2023/09/25 06:54:35;;;;;;;31.65;8.32;;;30.00;39.10;;;;;;5070306;28;20381;-60
2023/09/25 06:57:02;;;;;;;34.70;8.60;;;29.90;39.60;;;;;;5070978;28;20430;-59
2023/09/25 06:59:32;;;;;;;23.35;7.85;;;29.90;39.30;;;;;;5068555;28;20021;-60
2023/09/25 07:01:58;;;;;;;27.33;7.30;;;29.70;40.30;;;;;;5067144;28;20049;-57
2023/09/25 07:04:26;;;;;;;26.15;8.20;;;29.60;41.30;;;;;;5072456;28;20063;-59
2023/09/25 07:06:53;;;;;;;21.45;6.75;;;29.60;40.60;;;;;;5069993;28;20075;-59
2023/09/25 07:09:21;;;;;;;23.13;7.75;;;29.70;41.20;;;;;;5070441;28;20171;-59
2023/09/25 07:11:48;;;;;;;17.52;6.97;;;29.70;40.80;;;;;;5070736;28;20039;-63
2023/09/25 07:14:14;;;;;;;19.30;7.97;;;29.60;41.50;;;;;;5067402;28;20019;-60
2023/09/25 07:16:41;;;;;;;17.42;6.57;;;29.60;42.60;;;;;;5066122;28;20036;-60
2023/09/25 07:19:12;;;;;;;21.65;6.57;;;29.50;41.70;;;;;;5071475;28;20039;-59
2023/09/25 07:21:39;;;;;;;27.40;6.68;;;29.40;41.70;;;;;;5070603;28;20016;-59
2023/09/25 07:24:06;;;;;;;17.00;6.93;;;29.30;43.20;;;;;;5067041;28;20559;-63
2023/09/25 07:26:32;;;;;;;25.75;7.80;;;29.30;42.80;;;;;;5065789;28;20133;-58
2023/09/25 07:28:59;;;;;;;20.40;7.25;;;29.30;43.00;;;;;;5065846;28;20046;-58
2023/09/25 07:31:26;;;;;;;18.98;7.53;;;29.20;42.20;;;;;;5069149;28;20028;-62
2023/09/25 07:33:55;;;;;;;18.52;7.43;;;29.20;42.50;;;;;;5071162;28;20134;-59
2023/09/25 07:36:24;;;;;;;23.15;7.07;;;29.20;42.70;;;;;;5068084;28;20120;-61
2023/09/25 07:38:50;;;;;;;12.98;6.35;;;29.10;42.40;;;;;;5067211;28;20058;-57
2023/09/25 07:41:18;;;;;;;14.50;6.82;;;29.00;44.70;;;;;;5068923;28;20507;-57
2023/09/25 07:43:47;;;;;;;18.13;7.30;;;28.80;44.10;;;;;;5067722;28;20387;-59
2023/09/25 07:46:17;;;;;;;16.70;7.13;;;28.70;44.30;;;;;;5066064;28;20559;-59
2023/09/25 07:48:44;;;;;;;21.27;7.88;;;28.60;43.70;;;;;;5072865;28;20134;-59
2023/09/25 07:51:10;;;;;;;23.02;7.10;;;28.50;43.70;;;;;;5056723;28;20044;-61
2023/09/25 07:53:39;;;;;;;18.80;6.82;;;28.40;44.20;;;;;;5050461;28;20043;-59
2023/09/25 07:56:06;;;;;;;23.50;7.60;;;28.30;43.90;;;;;;5067277;28;20039;-60
2023/09/25 07:58:33;;;;;;;19.48;6.65;;;28.20;43.70;;;;;;5050692;28;20093;-56
2023/09/25 08:01:04;;;;;;;18.33;7.38;;;28.20;43.80;;;;;;5067626;28;20046;-59
2023/09/25 08:03:31;;;;;;;25.33;7.38;;;28.20;46.30;;;;;;5070799;28;20510;-60
2023/09/25 08:06:01;;;;;;;16.70;7.68;;;28.10;45.50;;;;;;5064942;28;20097;-55
2023/09/25 08:08:28;;;;;;;19.05;6.65;;;28.00;45.30;;;;;;5069712;28;20114;-57
2023/09/25 08:10:55;;;;;;;16.70;7.20;;;27.90;46.40;;;;;;5069353;28;20036;-57
2023/09/25 08:13:21;;;;;;;16.58;6.85;;;27.70;46.70;;;;;;5048178;28;20099;-61
2023/09/25 08:15:48;;;;;;;15.45;6.97;;;27.70;47.20;;;;;;5066529;28;20054;-60
2023/09/25 08:18:15;;;;;;;20.13;7.18;;;27.70;47.20;;;;;;5070953;28;20067;-60
2023/09/25 08:20:42;;;;;;;14.40;6.78;;;27.60;46.30;;;;;;5064030;28;20137;-57
2023/09/25 08:23:10;;;;;;;19.83;7.20;;;27.50;47.60;;;;;;5066582;28;20051;-54
2023/09/25 08:25:36;;;;;;;20.33;7.63;;;27.40;47.10;;;;;;5068053;28;20138;-61
2023/09/25 08:28:03;;;;;;;13.57;7.05;;;27.40;46.20;;;;;;5067468;28;20102;-59
2023/09/25 08:30:31;;;;;;;18.63;7.32;;;27.30;46.50;;;;;;5065228;28;20047;-58
2023/09/25 08:32:58;;;;;;;19.13;7.90;;;27.30;46.60;;;;;;5070141;28;20465;-58
2023/09/25 08:35:24;;;;;;;19.80;7.10;;;27.30;45.80;;;;;;5065875;28;20808;-57
2023/09/25 08:37:51;;;;;;;19.58;7.75;;;27.30;47.40;;;;;;5067636;28;20128;-58
2023/09/25 08:40:18;;;;;;;29.33;7.18;;;27.20;48.60;;;;;;5067932;28;20115;-58
2023/09/25 08:42:46;;;;;;;18.83;6.80;;;27.30;47.70;;;;;;5062979;28;20091;-57
2023/09/25 08:45:12;;;;;;;24.08;7.25;;;27.20;47.30;;;;;;5063736;28;20045;-60
2023/09/25 08:47:41;;;;;;;23.90;8.18;;;27.20;48.90;;;;;;5071084;28;20130;-59
2023/09/25 08:50:09;;;;;;;19.42;7.35;;;27.10;49.10;;;;;;5047784;28;20045;-59
2023/09/25 08:52:36;;;;;;;18.00;7.38;;;27.10;47.70;;;;;;5042865;28;20054;-60
2023/09/25 08:55:03;;;;;;;16.30;8.15;;;26.90;48.00;;;;;;5061769;28;20069;-61
2023/09/25 08:57:30;;;;;;;19.77;7.80;;;26.90;49.30;;;;;;5065110;28;20055;-59
2023/09/25 08:59:59;;;;;;;23.98;7.78;;;26.80;49.50;;;;;;5049546;28;20052;-59
2023/09/25 09:02:25;;;;;;;19.58;7.82;;;26.70;48.60;;;;;;5064046;28;20069;-59
2023/09/25 09:04:52;;;;;;;18.92;7.63;;;26.60;48.10;;;;;;5064293;28;20109;-58
2023/09/25 09:07:18;;;;;;;17.80;7.30;;;26.50;47.90;;;;;;5068681;28;20053;-58
2023/09/25 09:09:46;;;;;;;18.80;7.15;;;26.50;48.80;;;;;;5067543;28;20055;-58
2023/09/25 09:12:12;;;;;;;16.05;7.20;;;26.50;49.10;;;;;;5063080;28;20056;-59
2023/09/25 09:14:43;;;;;;;20.67;7.40;;;26.60;47.50;;;;;;5066582;28;20062;-60
2023/09/25 09:17:12;;;;;;;12.70;6.85;;;26.70;46.50;;;;;;5070584;28;20526;-58
2023/09/25 09:19:44;;;;;;;10.88;6.03;;;26.70;46.40;;;;;;5067535;28;20047;-58
2023/09/25 09:22:13;;;;;;;13.45;6.25;;;26.70;44.80;;;;;;5066155;28;20048;-59
2023/09/25 09:24:41;;;;;;;15.45;6.22;;;26.80;44.90;;;;;;5065888;28;20151;-58
2023/09/25 09:27:08;;;;;;;11.60;6.10;;;26.80;44.80;;;;;;5065146;28;20081;-58
2023/09/25 09:29:38;;;;;;;14.20;6.53;;;26.80;44.50;;;;;;5067048;28;20107;-55
2023/09/25 09:32:06;;;;;;;14.88;6.38;;;26.80;44.90;;;;;;5064902;28;20042;-62
2023/09/25 09:34:33;;;;;;;15.27;6.28;;;26.80;44.20;;;;;;5068880;28;20151;-59
2023/09/25 09:37:00;;;;;;;12.98;5.63;;;26.80;44.10;;;;;;5062726;28;20480;-56
2023/09/25 09:39:34;;;;;;;13.27;6.57;;;26.80;44.30;;;;;;5063779;28;20046;-58
2023/09/25 09:42:05;;;;;;;15.63;6.60;;;26.80;44.20;;;;;;5062022;28;20171;-54
2023/09/25 09:44:35;;;;;;;8.20;5.93;;;26.70;43.70;;;;;;5065435;28;20060;-58
2023/09/25 09:47:04;;;;;;;11.48;5.93;;;26.70;43.10;;;;;;5065306;28;20056;-57
2023/09/25 09:49:40;;;;;;;10.77;5.75;;;26.80;44.50;;;;;;5069070;28;20130;-57
2023/09/25 09:52:07;;;;;;;14.00;5.93;;;26.80;44.80;;;;;;5064415;28;20058;-58
2023/09/25 09:54:40;;;;;;;9.98;5.85;;;26.80;44.30;;;;;;5059704;28;20058;-61
2023/09/25 09:57:09;;;;;;;11.02;5.90;;;26.80;42.90;;;;;;5064534;28;20503;-60
2023/09/25 09:59:35;;;;;;;9.13;5.47;;;26.70;42.70;;;;;;5064879;28;20050;-61
2023/09/25 10:02:03;;;;;;;7.45;5.15;;;26.70;42.50;;;;;;5065771;28;20053;-57
2023/09/25 10:04:30;;;;;;;11.02;5.57;;;26.70;42.90;;;;;;5063805;28;20533;-54
2023/09/25 10:07:04;;;;;;;11.63;5.47;;;26.70;43.20;;;;;;5065076;28;20457;-58
2023/09/25 10:09:32;;;;;;;8.25;5.13;;;26.70;43.10;;;;;;5066974;28;20056;-58
2023/09/25 10:11:58;;;;;;;11.38;5.38;;;26.70;42.80;;;;;;5067826;28;20049;-59
2023/09/25 10:14:26;;;;;;;8.70;4.72;;;26.60;43.00;;;;;;5066785;28;20061;-58
2023/09/25 10:17:01;;;;;;;12.45;5.57;;;26.60;43.60;;;;;;5068253;28;20069;-58
2023/09/25 10:19:36;;;;;;;8.75;5.25;;;26.50;43.30;;;;;;5067123;28;20049;-57
2023/09/25 10:22:20;;;;;;;14.63;5.25;;;26.50;44.10;;;;;;5064821;28;20065;-58
2023/09/25 10:25:23;;;;;;;19.60;5.57;;;26.40;42.80;;;;;;5063988;28;20418;-60
2023/09/25 10:27:49;;;;;;;11.13;5.18;;;26.40;43.10;;;;;;4975949;28;20069;-60
2023/09/25 10:30:18;;;;;;;17.33;6.25;;;26.40;43.40;;;;;;4978041;28;20534;-60
2023/09/25 10:32:52;;;;;;;14.38;5.47;;;26.40;43.20;;;;;;4976577;28;20059;-59
2023/09/25 10:35:44;;;;;;;15.05;5.63;;;26.40;43.00;;;;;;4977061;28;20061;-57
2023/09/25 10:38:21;;;;;;;17.15;5.90;;;26.40;43.00;;;;;;4977569;28;20094;-62
2023/09/25 10:40:52;;;;;;;12.32;5.25;;;26.40;43.50;;;;;;4978862;28;20535;-59
2023/09/25 10:43:20;;;;;;;11.88;5.78;;;26.30;43.60;;;;;;4976872;28;20150;-57
2023/09/25 10:45:48;;;;;;;14.35;6.05;;;26.30;44.50;;;;;;4978256;28;20055;-58
2023/09/25 10:48:15;;;;;;;11.98;5.25;;;26.30;45.00;;;;;;4979346;28;20401;-56
2023/09/25 10:50:47;;;;;;;19.58;6.30;;;26.30;44.10;;;;;;4979596;28;20064;-61
2023/09/25 10:53:14;;;;;;;14.65;6.07;;;26.20;43.40;;;;;;4979380;28;20088;-56
2023/09/25 10:55:41;;;;;;;11.40;6.18;;;26.20;43.50;;;;;;4979975;28;20079;-59
2023/09/25 10:58:13;;;;;;;15.50;6.20;;;26.20;43.70;;;;;;4978204;28;20077;-57
2023/09/25 11:00:43;;;;;;;13.70;5.95;;;26.10;43.40;;;;;;4980483;28;20048;-58
2023/09/25 11:03:10;;;;;;;12.38;6.25;;;26.00;43.40;;;;;;5065806;28;20068;-57
2023/09/25 11:05:38;;;;;;;15.73;6.28;;;26.00;45.40;;;;;;5066737;28;20428;-57
2023/09/25 11:08:06;;;;;;;17.70;5.70;;;25.90;46.40;;;;;;5073395;28;20505;-58
2023/09/25 11:10:36;;;;;;;13.05;5.88;;;25.80;45.80;;;;;;5067166;28;21126;-60
2023/09/25 11:13:03;;;;;;;12.38;6.03;;;25.70;45.10;;;;;;5068024;28;20100;-61
2023/09/25 11:15:36;;;;;;;16.52;6.03;;;25.80;45.80;;;;;;5067729;28;20459;-57
2023/09/25 11:18:03;;;;;;;12.57;6.50;;;25.80;45.20;;;;;;5069377;28;20094;-61
2023/09/25 11:20:30;;;;;;;15.73;6.60;;;25.70;45.10;;;;;;5071768;28;20053;-58
2023/09/25 11:23:09;;;;;;;16.25;6.47;;;25.80;44.90;;;;;;5069374;28;20046;-59
2023/09/25 11:25:46;;;;;;;15.93;6.80;;;25.70;45.50;;;;;;5066604;28;20077;-58
2023/09/25 11:28:17;;;;;;;14.15;6.32;;;25.60;45.40;;;;;;5066024;28;20046;-58
2023/09/25 11:30:46;;;;;;;15.88;6.90;;;25.50;45.80;;;;;;5070121;28;20419;-59
2023/09/25 11:33:18;;;;;;;13.10;6.10;;;25.50;46.60;;;;;;5065565;28;20084;-57
2023/09/25 11:35:47;;;;;;;20.73;6.68;;;25.50;47.90;;;;;;5068920;28;20050;-56
2023/09/25 11:38:21;;;;;;;19.92;6.90;;;25.40;47.80;;;;;;5069254;28;20076;-56
2023/09/25 11:40:50;;;;;;;16.67;6.82;;;25.40;46.90;;;;;;5065467;28;20051;-62
2023/09/25 11:43:17;;;;;;;10.90;5.88;;;25.30;48.10;;;;;;5053267;28;20053;-60
2023/09/25 11:45:43;;;;;;;16.15;6.30;;;25.30;47.70;;;;;;5065749;28;20038;-58
2023/09/25 11:48:11;;;;;;;15.43;6.70;;;25.30;48.90;;;;;;5070584;28;20049;-58
2023/09/25 11:50:39;;;;;;;18.83;6.47;;;25.10;48.10;;;;;;5070126;28;20521;-57
2023/09/25 11:53:06;;;;;;;13.88;6.20;;;25.00;49.60;;;;;;5065465;28;20048;-58
2023/09/25 11:55:33;;;;;;;19.63;6.65;;;24.90;48.90;;;;;;5068706;28;20053;-58
2023/09/25 11:58:00;;;;;;;13.60;7.05;;;24.90;47.40;;;;;;5068995;28;20118;-59
2023/09/25 12:00:27;;;;;;;16.45;6.43;;;25.00;47.70;;;;;;5067381;28;20051;-60
2023/09/25 12:02:55;;;;;;;14.65;6.55;;;25.00;49.90;;;;;;5070437;28;20047;-59
2023/09/25 12:05:22;;;;;;;15.55;6.80;;;24.90;49.20;;;;;;5065810;28;20155;-60
2023/09/25 12:07:48;;;;;;;19.58;7.25;;;24.90;49.50;;;;;;5069246;28;20419;-57
2023/09/25 12:10:19;;;;;;;17.52;6.93;;;24.90;49.00;;;;;;5067090;28;20544;-58
2023/09/25 12:12:49;;;;;;;19.55;6.57;;;24.90;48.10;;;;;;5058083;28;20059;-58
2023/09/25 12:15:17;;;;;;;13.65;6.68;;;24.90;48.30;;;;;;5066013;28;20417;-56
2023/09/25 12:17:44;;;;;;;14.52;6.82;;;24.80;48.20;;;;;;5067307;28;20475;-60
2023/09/25 12:20:15;;;;;;;16.50;6.00;;;24.70;49.80;;;;;;5070556;28;20049;-59
2023/09/25 12:22:45;;;;;;;17.50;7.10;;;24.70;50.70;;;;;;5061624;28;20059;-56
2023/09/25 12:25:16;;;;;;;29.05;7.47;;;24.50;49.70;;;;;;5066671;28;20048;-57
2023/09/25 12:27:45;;;;;;;18.02;7.10;;;24.60;49.10;;;;;;5066137;28;21653;-58
2023/09/25 12:30:14;;;;;;;57.85;9.23;;;24.60;49.10;;;;;;5071659;28;20113;-60
2023/09/25 12:32:43;;;;;;;29.70;7.47;;;24.70;48.80;;;;;;5066844;28;20045;-59
2023/09/25 12:35:14;;;;;;;30.40;7.45;;;24.60;48.60;;;;;;5062315;28;20059;-55
2023/09/25 12:37:45;;;;;;;22.73;7.20;;;24.60;48.80;;;;;;5066168;28;20069;-58
2023/09/25 12:40:15;;;;;;;24.80;8.07;;;24.60;51.20;;;;;;5067802;28;20562;-58